Time;durP1;ratioP1;P1;durP2;ratioP2;P2;SDS_P1;SDS_P2;PMS_P1;PMS_P2;Temp;Humidity;BMP_temperature;BMP_pressure;BME280_temperature;BME280_humidity;BME280_pressure;Samples;Min_cycle;Max_cycle;Signal;HPM_P1;HPM_P2
2022/01/23 00:00:32;;;;;;;6.35;3.25;;;7.30;99.90;;;;;;5028886;28;20087;-76
2022/01/23 00:02:59;;;;;;;4.95;3.55;;;7.30;99.90;;;;;;5037739;28;20049;-76
2022/01/23 00:05:28;;;;;;;4.85;3.08;;;7.30;99.90;;;;;;5038009;28;20095;-77
2022/01/23 00:07:54;;;;;;;5.72;3.58;;;7.40;99.90;;;;;;5039235;28;20080;-75
2022/01/23 00:10:20;;;;;;;7.20;3.75;;;7.40;99.90;;;;;;5039430;28;20120;-76
2022/01/23 00:12:50;;;;;;;3.92;3.55;;;7.30;99.90;;;;;;5036690;28;20053;-76
2022/01/23 00:18:00;;;;;;;8.75;3.72;;;7.30;99.90;;;;;;5038762;28;20890;-75
2022/01/23 00:20:26;;;;;;;8.15;3.53;;;7.30;99.90;;;;;;5038285;28;20053;-76
2022/01/23 00:22:56;;;;;;;6.50;3.28;;;7.30;99.90;;;;;;5036964;28;20052;-77
2022/01/23 00:30:53;;;;;;;7.47;3.97;;;7.30;99.90;;;;;;5038911;28;20063;-76
2022/01/23 00:33:19;;;;;;;4.78;3.97;;;7.30;99.90;;;;;;5037464;28;20049;-76
2022/01/23 00:35:46;;;;;;;5.60;3.38;;;7.30;99.90;;;;;;5036840;28;20044;-77
2022/01/23 00:38:13;;;;;;;5.50;3.60;;;7.30;99.90;;;;;;5036678;28;20045;-77
2022/01/23 00:40:40;;;;;;;5.40;3.80;;;7.30;99.90;;;;;;5035889;28;20576;-77
2022/01/23 00:43:14;;;;;;;5.70;3.55;;;7.30;99.90;;;;;;5036298;28;20480;-76
2022/01/23 00:45:54;;;;;;;5.70;2.67;;;7.40;99.90;;;;;;5038201;28;20051;-76
2022/01/23 00:48:26;;;;;;;9.35;3.58;;;7.40;99.90;;;;;;5035144;28;20073;-76
2022/01/23 00:50:52;;;;;;;6.90;3.17;;;7.40;99.90;;;;;;5036465;28;20572;-76
2022/01/23 00:53:18;;;;;;;7.15;2.83;;;7.40;99.90;;;;;;5036174;28;20060;-76
2022/01/23 00:55:47;;;;;;;4.55;2.88;;;7.40;99.90;;;;;;5035797;28;20389;-76
2022/01/23 00:58:14;;;;;;;10.88;4.55;;;7.30;99.90;;;;;;5036300;28;20161;-76
2022/01/23 01:00:41;;;;;;;10.57;3.30;;;7.40;99.90;;;;;;5035192;28;20814;-77
2022/01/23 01:03:08;;;;;;;3.45;2.75;;;7.40;99.90;;;;;;5066765;28;20072;-76
2022/01/23 01:05:33;;;;;;;5.18;3.85;;;7.40;99.90;;;;;;5035461;28;20045;-76
2022/01/23 01:08:02;;;;;;;5.22;3.55;;;7.40;99.90;;;;;;5034785;28;20095;-76
2022/01/23 01:10:37;;;;;;;5.88;3.55;;;7.50;99.90;;;;;;5035549;28;20526;-76
2022/01/23 01:13:05;;;;;;;4.85;3.47;;;7.50;99.90;;;;;;5036713;28;20520;-76
2022/01/23 01:16:12;;;;;;;3.92;3.15;;;7.50;99.90;;;;;;5037857;28;20188;-77
2022/01/23 01:32:11;;;;;;;5.70;3.78;;;7.40;99.90;;;;;;5032904;28;20083;-76
2022/01/23 01:34:46;;;;;;;6.53;2.85;;;7.50;99.90;;;;;;5040477;28;20056;-77
2022/01/23 01:37:12;;;;;;;3.60;2.85;;;7.50;99.90;;;;;;5038399;28;20774;-77
2022/01/23 01:39:38;;;;;;;5.72;3.53;;;7.50;99.90;;;;;;5039112;28;20056;-76
2022/01/23 01:42:04;;;;;;;5.35;3.20;;;7.50;99.90;;;;;;5039320;28;20045;-77
2022/01/23 01:44:31;;;;;;;3.85;3.10;;;7.50;99.90;;;;;;5038056;28;20045;-76
2022/01/23 01:46:56;;;;;;;4.72;3.10;;;7.50;99.90;;;;;;5040802;28;20057;-76
2022/01/23 01:49:30;;;;;;;5.40;3.10;;;7.40;99.90;;;;;;5040427;28;20100;-76
2022/01/23 01:52:00;;;;;;;3.28;2.97;;;7.50;99.90;;;;;;5039604;28;20602;-76
2022/01/23 01:54:28;;;;;;;3.67;2.78;;;7.50;99.90;;;;;;5039477;28;20053;-77
2022/01/23 01:57:09;;;;;;;6.15;2.88;;;7.50;99.90;;;;;;5039285;28;20057;-77
2022/01/23 02:10:24;;;;;;;4.75;3.00;;;7.50;99.90;;;;;;5040998;28;20091;-77
2022/01/23 02:23:58;;;;;;;4.55;3.17;;;7.40;99.90;;;;;;5040684;28;20059;-77
2022/01/23 02:50:59;;;;;;;4.03;2.85;;;7.20;99.90;;;;;;5038099;28;20045;-77
2022/01/23 02:56:33;;;;;;;3.30;3.00;;;7.20;99.90;;;;;;5040367;28;20064;-77
2022/01/23 02:59:10;;;;;;;9.63;3.35;;;7.20;99.90;;;;;;5037494;28;20496;-77
2022/01/23 03:01:46;;;;;;;4.65;3.08;;;7.20;99.90;;;;;;5032598;28;20052;-76
2022/01/23 03:04:12;;;;;;;5.15;3.30;;;7.20;99.90;;;;;;5037652;28;20056;-76
2022/01/23 03:06:57;;;;;;;5.22;3.10;;;7.20;99.90;;;;;;5039673;28;20068;-77
2022/01/23 03:30:27;;;;;;;6.38;3.30;;;7.10;99.90;;;;;;5038645;28;20124;-77
2022/01/23 03:32:54;;;;;;;5.03;2.80;;;7.10;99.90;;;;;;5038714;28;20044;-77
2022/01/23 03:35:22;;;;;;;8.75;3.53;;;7.10;99.90;;;;;;5037559;28;20060;-77
2022/01/23 03:37:49;;;;;;;5.35;3.05;;;7.10;99.90;;;;;;5036125;28;20060;-77
2022/01/23 03:40:16;;;;;;;3.78;2.95;;;7.10;99.90;;;;;;5036768;28;20053;-77
2022/01/23 03:42:44;;;;;;;6.80;3.38;;;7.10;99.90;;;;;;5036269;28;20047;-77
2022/01/23 03:48:00;;;;;;;7.15;3.38;;;7.10;99.90;;;;;;5037153;28;20087;-77
2022/01/23 03:50:26;;;;;;;4.30;3.35;;;7.10;99.90;;;;;;5036704;28;20057;-77
2022/01/23 03:52:52;;;;;;;8.88;4.35;;;7.10;99.90;;;;;;5037474;28;20060;-77
2022/01/23 03:55:17;;;;;;;5.78;3.90;;;7.10;99.90;;;;;;5037124;28;20547;-77
2022/01/23 03:57:43;;;;;;;4.55;2.90;;;7.10;99.90;;;;;;5036650;28;20725;-77
2022/01/23 04:00:09;;;;;;;5.07;3.30;;;7.10;99.90;;;;;;5037157;28;20156;-77
2022/01/23 04:02:35;;;;;;;7.43;3.03;;;7.20;99.90;;;;;;5038457;28;20045;-77
2022/01/23 04:05:00;;;;;;;5.13;3.13;;;7.20;99.90;;;;;;5037652;28;20041;-77
2022/01/23 04:07:28;;;;;;;6.88;3.80;;;7.20;99.90;;;;;;5036752;28;20045;-77
2022/01/23 04:09:54;;;;;;;5.78;3.03;;;7.10;99.90;;;;;;5036029;28;20057;-77
2022/01/23 04:12:33;;;;;;;4.28;2.78;;;7.20;99.90;;;;;;5036387;28;20064;-77
2022/01/23 04:15:14;;;;;;;6.43;2.90;;;7.20;99.90;;;;;;5037081;28;20068;-78
2022/01/23 04:18:28;;;;;;;4.63;2.78;;;7.20;99.90;;;;;;5038265;28;20091;-77
2022/01/23 05:06:57;;;;;;;4.95;3.10;;;7.10;99.90;;;;;;5040473;28;20568;-78
2022/01/23 05:09:23;;;;;;;4.22;2.72;;;7.10;99.90;;;;;;5040876;28;20124;-78
2022/01/23 05:11:53;;;;;;;5.53;2.78;;;7.10;99.90;;;;;;5040440;28;20044;-78
2022/01/23 05:14:26;;;;;;;4.72;2.90;;;7.10;99.90;;;;;;5041066;28;20128;-78
2022/01/23 05:16:52;;;;;;;4.97;3.03;;;7.10;99.90;;;;;;5040190;28;20126;-77
2022/01/23 05:19:18;;;;;;;4.00;2.53;;;7.10;99.90;;;;;;5041435;28;20053;-78
2022/01/23 05:22:07;;;;;;;4.97;4.10;;;7.10;99.90;;;;;;5039684;28;20041;-78
2022/01/23 05:24:35;;;;;;;4.53;2.95;;;7.10;99.90;;;;;;5041667;28;20060;-78
2022/01/23 05:27:02;;;;;;;6.63;2.70;;;7.10;99.90;;;;;;5041798;28;20053;-78
2022/01/23 05:29:28;;;;;;;6.57;2.65;;;7.10;99.90;;;;;;5039278;28;20056;-77
2022/01/23 05:31:54;;;;;;;4.45;2.70;;;7.10;99.90;;;;;;5039318;28;20086;-75
2022/01/23 05:34:21;;;;;;;5.55;3.10;;;7.10;99.90;;;;;;5039948;28;20435;-78
2022/01/23 05:36:47;;;;;;;7.78;3.25;;;7.10;99.90;;;;;;5039870;28;20053;-78
2022/01/23 05:39:16;;;;;;;4.50;2.88;;;7.10;99.90;;;;;;5042102;28;20049;-77
2022/01/23 05:41:41;;;;;;;4.95;2.72;;;7.10;99.90;;;;;;5041610;28;20103;-78
2022/01/23 05:44:07;;;;;;;4.45;3.45;;;7.10;99.90;;;;;;5038869;28;20065;-78
2022/01/23 05:46:32;;;;;;;6.28;3.47;;;7.10;99.90;;;;;;5040494;28;20049;-77
2022/01/23 05:48:58;;;;;;;4.05;2.72;;;7.10;99.90;;;;;;5040513;28;20638;-77
2022/01/23 05:51:23;;;;;;;2.35;2.03;;;7.10;99.90;;;;;;5039174;28;20044;-78
2022/01/23 05:53:50;;;;;;;5.22;3.22;;;7.10;99.90;;;;;;5040264;28;20182;-78
2022/01/23 05:56:16;;;;;;;4.65;2.72;;;7.20;99.90;;;;;;5038976;28;20053;-77
2022/01/23 05:58:42;;;;;;;6.25;3.38;;;7.20;99.90;;;;;;5040544;28;20052;-78
2022/01/23 06:01:08;;;;;;;5.35;3.58;;;7.20;99.90;;;;;;5038369;28;20128;-78
2022/01/23 06:03:33;;;;;;;5.63;2.78;;;7.10;99.90;;;;;;5038506;28;20053;-77
2022/01/23 06:05:59;;;;;;;5.70;3.15;;;7.10;99.90;;;;;;5038665;28;20124;-78
2022/01/23 06:08:25;;;;;;;4.45;3.03;;;7.10;99.90;;;;;;5040089;28;20045;-78
2022/01/23 06:10:57;;;;;;;3.72;2.50;;;7.10;99.90;;;;;;5039182;28;20045;-78
2022/01/23 06:13:24;;;;;;;4.07;3.05;;;7.10;99.90;;;;;;5038556;28;20931;-78
2022/01/23 06:15:50;;;;;;;5.05;2.63;;;7.10;99.90;;;;;;5037813;28;20503;-78
2022/01/23 06:18:15;;;;;;;4.85;2.80;;;7.10;99.90;;;;;;5038910;28;20044;-78
2022/01/23 06:20:41;;;;;;;5.68;3.05;;;7.10;99.90;;;;;;5037975;28;20049;-78
2022/01/23 06:23:06;;;;;;;4.25;3.15;;;7.10;99.90;;;;;;5039319;28;20067;-78
2022/01/23 06:25:34;;;;;;;9.00;4.40;;;7.10;99.90;;;;;;5036410;28;20049;-78
2022/01/23 06:28:02;;;;;;;4.47;2.30;;;7.10;99.90;;;;;;5036429;28;20044;-77
2022/01/23 06:30:28;;;;;;;9.43;4.03;;;7.10;99.90;;;;;;5035060;28;20057;-78
2022/01/23 06:32:54;;;;;;;7.45;3.08;;;7.10;99.90;;;;;;5035949;28;20515;-77
2022/01/23 06:35:19;;;;;;;7.40;3.65;;;7.00;99.90;;;;;;5036578;28;20487;-78
2022/01/23 06:37:45;;;;;;;7.15;4.88;;;7.10;99.90;;;;;;5035798;28;20052;-77
2022/01/23 06:40:11;;;;;;;4.80;2.85;;;7.00;99.90;;;;;;5035378;28;20063;-77
2022/01/23 06:42:36;;;;;;;7.60;3.55;;;7.10;99.90;;;;;;5036495;28;20045;-78
2022/01/23 06:45:02;;;;;;;5.22;3.35;;;7.10;99.90;;;;;;5002352;28;1012245;-77
2022/01/23 06:47:28;;;;;;;5.32;3.40;;;7.10;99.90;;;;;;5036943;28;20124;-78
2022/01/23 06:49:53;;;;;;;4.53;2.75;;;7.10;99.90;;;;;;5036124;28;20787;-78
2022/01/23 06:52:19;;;;;;;3.65;2.88;;;7.00;99.90;;;;;;5035583;28;20136;-78
2022/01/23 06:54:44;;;;;;;3.63;2.70;;;7.00;99.90;;;;;;5034566;28;20344;-78
2022/01/23 06:57:10;;;;;;;4.90;3.55;;;7.10;99.90;;;;;;5068241;28;20048;-78
2022/01/23 06:59:36;;;;;;;4.03;2.92;;;7.10;99.90;;;;;;5034870;28;20914;-78
2022/01/23 07:02:03;;;;;;;4.57;3.38;;;7.10;99.90;;;;;;5035702;28;20067;-78
2022/01/23 07:04:29;;;;;;;3.28;2.90;;;7.10;99.90;;;;;;5037760;28;20064;-77
2022/01/23 07:06:55;;;;;;;5.50;3.08;;;7.00;99.90;;;;;;5069712;28;20413;-78
2022/01/23 07:09:21;;;;;;;6.15;3.53;;;7.00;99.90;;;;;;5068853;28;20843;-78
2022/01/23 07:11:47;;;;;;;5.45;3.15;;;7.00;99.90;;;;;;5036769;28;20057;-78
2022/01/23 07:14:13;;;;;;;6.10;3.40;;;7.10;99.90;;;;;;5036248;28;20048;-78
2022/01/23 07:16:38;;;;;;;4.47;3.13;;;7.00;99.90;;;;;;5069144;28;20123;-78
2022/01/23 07:19:04;;;;;;;4.88;2.88;;;7.00;99.90;;;;;;5037189;28;20639;-78
2022/01/23 07:21:30;;;;;;;3.95;3.42;;;7.00;99.90;;;;;;5036103;28;20044;-77
2022/01/23 07:23:55;;;;;;;6.82;3.63;;;7.00;99.90;;;;;;5030301;28;20667;-78
2022/01/23 07:26:23;;;;;;;6.78;3.00;;;7.00;99.90;;;;;;5065687;28;20136;-79
2022/01/23 07:28:51;;;;;;;4.28;3.58;;;7.00;99.90;;;;;;5031604;28;20048;-78
2022/01/23 07:31:32;;;;;;;5.25;3.72;;;7.00;99.90;;;;;;5033793;28;20044;-78
2022/01/23 07:34:00;;;;;;;3.70;2.75;;;7.00;99.90;;;;;;5029456;28;20921;-77
2022/01/23 07:36:26;;;;;;;4.85;2.92;;;7.00;99.90;;;;;;5061374;28;20049;-78
2022/01/23 07:38:51;;;;;;;5.60;3.30;;;7.00;99.90;;;;;;5030067;28;20056;-78
2022/01/23 07:41:17;;;;;;;4.50;3.30;;;7.00;99.90;;;;;;5062930;28;20068;-77
2022/01/23 07:43:42;;;;;;;6.13;3.28;;;7.00;99.90;;;;;;5063547;28;20194;-78
2022/01/23 07:46:08;;;;;;;4.15;2.70;;;7.00;99.90;;;;;;5035255;28;20061;-77
2022/01/23 07:48:33;;;;;;;4.95;2.60;;;7.10;99.90;;;;;;5034659;28;20056;-78
2022/01/23 07:50:59;;;;;;;3.20;2.78;;;7.10;99.90;;;;;;5033035;28;20036;-78
2022/01/23 07:53:24;;;;;;;4.65;2.70;;;7.10;99.90;;;;;;5032186;28;20058;-77
2022/01/23 07:55:50;;;;;;;5.10;2.97;;;7.10;99.90;;;;;;5064205;28;20041;-78
2022/01/23 07:58:16;;;;;;;8.05;3.38;;;7.10;99.90;;;;;;5033813;28;20060;-78
2022/01/23 08:00:42;;;;;;;4.80;2.97;;;7.10;99.90;;;;;;5034596;28;20048;-78
2022/01/23 08:03:08;;;;;;;6.85;3.10;;;7.10;99.90;;;;;;5033930;28;20538;-78
2022/01/23 08:05:35;;;;;;;4.38;2.88;;;7.10;99.90;;;;;;5066649;28;20148;-78
2022/01/23 08:08:01;;;;;;;5.97;3.58;;;7.10;99.90;;;;;;5029948;28;20052;-78
2022/01/23 08:10:26;;;;;;;6.00;4.55;;;7.10;99.90;;;;;;5031105;28;20040;-79
2022/01/23 08:12:52;;;;;;;4.10;2.72;;;7.20;99.90;;;;;;5034875;28;20040;-77
2022/01/23 08:15:18;;;;;;;5.50;2.88;;;7.20;99.90;;;;;;5033174;28;20052;-78
2022/01/23 08:17:44;;;;;;;2.85;2.60;;;7.20;99.90;;;;;;5033897;28;20053;-78
2022/01/23 08:20:10;;;;;;;5.18;3.33;;;7.20;99.90;;;;;;5033323;28;20055;-78
2022/01/23 08:22:35;;;;;;;4.18;2.95;;;7.20;99.90;;;;;;5032028;28;20039;-78
2022/01/23 08:25:02;;;;;;;4.10;2.47;;;7.20;99.90;;;;;;5032609;28;20795;-78
2022/01/23 08:27:28;;;;;;;4.35;2.67;;;7.30;99.90;;;;;;5033047;28;20235;-77
2022/01/23 08:29:54;;;;;;;4.10;2.90;;;7.20;99.90;;;;;;5030534;28;20473;-77
2022/01/23 08:32:20;;;;;;;3.33;2.35;;;7.30;99.90;;;;;;5034498;28;20041;-78
2022/01/23 08:34:46;;;;;;;3.67;2.33;;;7.30;99.90;;;;;;5034491;28;20055;-77
2022/01/23 08:37:12;;;;;;;3.53;2.63;;;7.30;99.90;;;;;;5033980;28;20040;-78
2022/01/23 08:39:39;;;;;;;4.25;3.47;;;7.30;99.90;;;;;;5033397;28;20056;-77
2022/01/23 08:42:17;;;;;;;4.97;2.65;;;7.40;99.90;;;;;;5033191;28;20128;-77
2022/01/23 08:44:47;;;;;;;3.65;2.05;;;7.40;99.90;;;;;;5030908;28;20060;-77
2022/01/23 08:47:14;;;;;;;3.78;2.30;;;7.50;99.90;;;;;;5032244;28;20116;-77
2022/01/23 08:49:44;;;;;;;2.78;2.28;;;7.50;99.90;;;;;;5030159;28;20226;-77
2022/01/23 08:52:11;;;;;;;2.55;2.15;;;7.50;99.90;;;;;;5030469;28;20063;-77
2022/01/23 08:54:37;;;;;;;2.33;1.95;;;7.50;99.90;;;;;;5030716;28;20049;-78
2022/01/23 08:57:03;;;;;;;1.85;1.70;;;7.50;99.90;;;;;;5066408;28;20049;-77
2022/01/23 08:59:28;;;;;;;3.72;2.63;;;7.60;99.90;;;;;;5030070;28;20049;-77
2022/01/23 09:01:54;;;;;;;3.35;2.08;;;7.60;99.90;;;;;;5033875;28;20080;-78
2022/01/23 09:04:19;;;;;;;4.20;2.28;;;7.60;99.90;;;;;;5033409;28;20040;-77
2022/01/23 09:06:47;;;;;;;3.10;2.10;;;7.70;99.90;;;;;;5066348;28;20045;-77
2022/01/23 09:09:20;;;;;;;2.38;1.88;;;7.80;99.90;;;;;;5035685;28;20049;-77
2022/01/23 09:14:22;;;;;;;2.40;1.83;;;7.80;99.90;;;;;;5032913;28;20080;-78
2022/01/23 09:16:50;;;;;;;2.78;1.77;;;7.80;99.90;;;;;;5066036;28;20354;-76
2022/01/23 09:19:19;;;;;;;2.38;1.90;;;7.90;99.90;;;;;;5033222;28;20056;-77
2022/01/23 09:21:46;;;;;;;1.10;0.93;;;7.80;99.90;;;;;;4326417;28;10000248;-79
2022/01/23 09:24:12;;;;;;;1.38;1.25;;;7.80;99.90;;;;;;5031326;28;20037;-79
2022/01/23 09:26:38;;;;;;;2.97;1.20;;;7.90;99.90;;;;;;5057380;28;20041;-79
2022/01/23 09:29:13;;;;;;;2.35;1.33;;;7.90;99.90;;;;;;5030754;28;20186;-79
2022/01/23 09:32:12;;;;;;;1.65;0.70;;;7.90;99.90;;;;;;5031153;28;20045;-76
2022/01/23 09:34:32;;;;;;;0.30;0.30;;;7.90;99.90;;;;;;5027677;28;20140;-77
2022/01/23 09:37:01;;;;;;;0.30;0.30;;;8.00;99.90;;;;;;5033481;28;20051;-76
2022/01/23 09:39:27;;;;;;;0.75;0.30;;;7.90;99.90;;;;;;5062119;28;20135;-76
2022/01/23 09:42:14;;;;;;;1.15;0.90;;;8.00;99.90;;;;;;5033110;28;20131;-76
2022/01/23 09:45:01;;;;;;;2.17;1.98;;;8.00;99.90;;;;;;5034745;28;20140;-76
2022/01/23 09:47:27;;;;;;;2.92;1.73;;;8.00;99.90;;;;;;5032035;28;20980;-74
2022/01/23 09:49:54;;;;;;;3.33;2.35;;;8.10;99.90;;;;;;5031870;28;20149;-75
2022/01/23 09:52:21;;;;;;;2.72;2.35;;;8.10;99.90;;;;;;5030771;28;20052;-77
2022/01/23 09:55:00;;;;;;;8.35;3.00;;;8.10;99.90;;;;;;5067051;28;20215;-77
2022/01/23 09:57:30;;;;;;;4.40;2.63;;;8.10;99.90;;;;;;5031355;28;20033;-77
2022/01/23 09:59:57;;;;;;;3.50;2.50;;;8.10;99.90;;;;;;5028742;28;20822;-77
2022/01/23 10:02:23;;;;;;;3.35;2.80;;;8.10;99.90;;;;;;5032839;28;20060;-77
2022/01/23 10:04:51;;;;;;;3.50;2.42;;;8.20;99.90;;;;;;5029731;28;20041;-77
2022/01/23 10:07:18;;;;;;;3.72;2.22;;;8.20;99.90;;;;;;5028075;28;20041;-77
2022/01/23 10:09:44;;;;;;;3.45;2.88;;;8.30;99.90;;;;;;5029590;28;20436;-77
2022/01/23 10:12:12;;;;;;;2.22;1.95;;;8.20;99.90;;;;;;5032307;28;20053;-77
2022/01/23 10:14:37;;;;;;;3.08;2.10;;;8.30;99.90;;;;;;5032487;28;20485;-76
2022/01/23 10:17:06;;;;;;;2.53;1.70;;;8.30;99.90;;;;;;5064163;28;20052;-77
2022/01/23 10:19:33;;;;;;;2.45;2.15;;;8.30;99.90;;;;;;5033530;28;20041;-77
2022/01/23 10:22:00;;;;;;;3.95;2.60;;;8.40;99.90;;;;;;5062198;28;20849;-77
2022/01/23 10:24:28;;;;;;;4.10;2.65;;;8.40;99.90;;;;;;5032321;28;20668;-77
2022/01/23 10:26:56;;;;;;;3.13;2.58;;;8.50;99.90;;;;;;4683541;28;10000427;-78
2022/01/23 10:29:25;;;;;;;3.17;2.70;;;8.50;99.90;;;;;;5031761;28;20134;-77
2022/01/23 10:32:24;;;;;;;3.15;2.08;;;8.60;99.90;;;;;;5029624;28;20076;-77
2022/01/23 10:34:49;;;;;;;4.18;2.90;;;8.60;99.90;;;;;;5030042;28;20053;-77
2022/01/23 10:37:26;;;;;;;3.22;2.35;;;8.60;99.90;;;;;;5034576;28;20357;-77
2022/01/23 10:39:52;;;;;;;4.28;2.47;;;8.60;99.90;;;;;;5034290;28;20174;-77
2022/01/23 10:42:25;;;;;;;3.45;2.63;;;8.60;99.90;;;;;;5033491;28;20045;-77
2022/01/23 10:47:47;;;;;;;3.38;1.98;;;8.70;99.90;;;;;;5031591;28;20060;-77
2022/01/23 10:50:13;;;;;;;2.88;2.10;;;8.70;99.90;;;;;;5033365;28;20060;-77
2022/01/23 10:52:45;;;;;;;2.38;1.73;;;8.70;99.90;;;;;;5034183;28;20048;-75
2022/01/23 10:55:10;;;;;;;2.88;1.70;;;8.70;99.90;;;;;;5029056;28;20102;-76
2022/01/23 10:57:44;;;;;;;2.17;1.42;;;8.70;99.90;;;;;;5064775;28;20952;-77
2022/01/23 11:00:24;;;;;;;1.75;1.20;;;8.70;99.90;;;;;;5031975;28;20059;-77
2022/01/23 11:02:49;;;;;;;1.25;1.17;;;8.70;99.90;;;;;;5034653;28;20072;-77
2022/01/23 11:05:19;;;;;;;1.25;0.80;;;8.80;99.90;;;;;;5024552;28;20132;-77
2022/01/23 11:07:46;;;;;;;2.08;0.70;;;8.70;99.90;;;;;;5014193;28;20762;-77
2022/01/23 11:10:16;;;;;;;0.70;0.60;;;8.80;99.90;;;;;;5025533;28;20044;-77
2022/01/23 11:18:04;;;;;;;0.45;0.45;;;8.80;99.90;;;;;;5033938;28;20060;-77
2022/01/23 11:20:44;;;;;;;0.55;0.50;;;8.80;99.90;;;;;;5034546;28;20060;-77
2022/01/23 11:23:30;;;;;;;0.50;0.50;;;8.90;99.90;;;;;;5034991;28;20864;-77
2022/01/23 11:25:56;;;;;;;0.52;0.52;;;8.80;99.90;;;;;;5036943;28;20045;-76
2022/01/23 11:28:41;;;;;;;0.45;0.45;;;8.80;99.90;;;;;;5033222;28;20113;-77
2022/01/23 11:31:09;;;;;;;0.75;0.50;;;8.80;99.90;;;;;;5035861;28;20055;-77
2022/01/23 11:33:35;;;;;;;0.57;0.55;;;8.80;99.90;;;;;;5035059;28;20503;-77
2022/01/23 11:36:02;;;;;;;1.08;0.73;;;8.70;99.90;;;;;;5035719;28;20048;-77
2022/01/23 11:38:28;;;;;;;3.53;1.23;;;8.70;99.90;;;;;;5035086;28;20191;-77
2022/01/23 11:54:43;;;;;;;0.30;0.30;;;8.80;99.90;;;;;;5020741;28;20088;-78
2022/01/23 11:57:34;;;;;;;0.20;0.20;;;8.80;99.90;;;;;;5059311;28;20051;-79
2022/01/23 12:00:06;;;;;;;0.20;0.20;;;8.90;99.90;;;;;;5030418;28;20056;-79
2022/01/23 12:02:38;;;;;;;0.30;0.20;;;9.00;99.90;;;;;;5035391;28;20049;-79
2022/01/23 12:05:20;;;;;;;0.35;0.35;;;9.00;99.90;;;;;;5037964;28;20079;-79
2022/01/23 12:08:20;;;;;;;0.30;0.30;;;9.10;99.90;;;;;;5032943;28;20081;-79
2022/01/23 12:16:26;;;;;;;0.30;0.30;;;9.10;99.90;;;;;;5034833;28;20053;-79
2022/01/23 12:19:16;;;;;;;0.20;0.20;;;9.10;99.90;;;;;;5032813;28;20296;-79
2022/01/23 12:21:41;;;;;;;0.60;0.60;;;9.10;99.90;;;;;;5032341;28;20251;-79
2022/01/23 12:24:09;;;;;;;1.02;0.40;;;9.10;99.90;;;;;;5032396;28;20044;-79
2022/01/23 12:26:35;;;;;;;0.60;0.40;;;9.00;99.90;;;;;;5034252;28;20048;-80
2022/01/23 12:29:11;;;;;;;0.70;0.30;;;9.10;99.90;;;;;;5033423;28;20925;-79
2022/01/23 12:31:38;;;;;;;0.40;0.40;;;9.00;99.90;;;;;;5034786;28;20053;-80
2022/01/23 12:34:04;;;;;;;0.52;0.52;;;9.00;99.90;;;;;;5034893;28;20135;-79
2022/01/23 12:36:32;;;;;;;0.47;0.47;;;9.00;99.90;;;;;;5034721;28;20056;-80
2022/01/23 12:39:18;;;;;;;0.90;0.80;;;9.00;99.90;;;;;;5034475;28;20067;-79
2022/01/23 12:41:47;;;;;;;0.45;0.45;;;8.90;99.90;;;;;;5033158;28;20338;-76
2022/01/23 12:44:26;;;;;;;0.63;0.43;;;8.90;99.90;;;;;;5033121;28;20735;-80
2022/01/23 12:47:04;;;;;;;0.77;0.43;;;9.00;99.90;;;;;;5032541;28;20055;-81
2022/01/23 12:49:34;;;;;;;4.07;0.73;;;9.00;99.90;;;;;;5033941;28;20053;-81
2022/01/23 12:52:06;;;;;;;2.05;0.50;;;9.00;99.90;;;;;;5034573;28;20087;-81
2022/01/23 12:54:34;;;;;;;2.05;0.60;;;9.00;99.90;;;;;;5033591;28;20092;-80
2022/01/23 12:57:16;;;;;;;2.22;0.68;;;9.00;99.90;;;;;;5033168;28;20146;-80
2022/01/23 12:59:50;;;;;;;3.58;0.60;;;9.00;99.90;;;;;;5032058;28;20048;-79
2022/01/23 13:02:18;;;;;;;1.48;0.70;;;9.00;99.90;;;;;;5034083;28;20048;-80
2022/01/23 13:04:47;;;;;;;1.30;0.63;;;9.00;99.90;;;;;;5033155;28;20647;-80
2022/01/23 13:10:00;;;;;;;0.90;0.50;;;9.10;99.90;;;;;;5033108;28;20151;-79
2022/01/23 13:15:27;;;;;;;1.35;1.05;;;9.10;99.90;;;;;;5016153;28;20145;-80
2022/01/23 13:26:56;;;;;;;0.95;0.75;;;9.10;99.90;;;;;;5016940;28;19979;-80
2022/01/23 13:32:20;;;;;;;1.30;1.20;;;9.20;99.90;;;;;;5018770;28;20111;-80
2022/01/23 13:34:51;;;;;;;0.90;0.90;;;9.10;99.90;;;;;;5036332;28;20045;-80
2022/01/23 13:37:30;;;;;;;1.20;1.10;;;9.10;99.90;;;;;;5038645;28;20667;-80
2022/01/23 13:40:03;;;;;;;2.70;1.30;;;9.10;99.90;;;;;;5037497;28;20080;-80
2022/01/23 13:57:38;;;;;;;1.77;1.65;;;9.00;99.90;;;;;;5034629;28;20095;-81
2022/01/23 14:02:25;;;;;;;1.67;1.58;;;8.90;99.90;;;;;;5036562;28;20743;-81
2022/01/23 14:05:05;;;;;;;2.10;1.77;;;8.90;99.90;;;;;;5038517;28;20049;-81
2022/01/23 14:07:31;;;;;;;1.95;1.60;;;8.90;99.90;;;;;;5038624;28;20132;-82
2022/01/23 14:10:16;;;;;;;1.88;1.17;;;8.90;99.90;;;;;;5036941;28;20114;-81
2022/01/23 14:12:43;;;;;;;2.17;1.25;;;8.90;99.90;;;;;;5037545;28;20329;-81
2022/01/23 14:15:16;;;;;;;2.65;1.52;;;8.90;99.90;;;;;;5035087;28;20056;-80
2022/01/23 14:17:42;;;;;;;;;;;8.90;99.90;;;;;;5066710;28;20119;-81
2022/01/23 14:20:16;;;;;;;1.73;1.58;;;8.80;99.90;;;;;;5036271;28;20392;-80
2022/01/23 14:22:47;;;;;;;0.73;0.73;;;8.80;99.90;;;;;;5031769;28;20051;-80
2022/01/23 14:25:16;;;;;;;2.53;1.13;;;8.80;99.90;;;;;;5037748;28;20037;-81
2022/01/23 14:28:03;;;;;;;1.23;0.90;;;8.80;99.90;;;;;;5038376;28;20628;-81
2022/01/23 14:30:30;;;;;;;1.73;1.35;;;8.80;99.90;;;;;;5071664;28;20052;-81
2022/01/23 14:33:04;;;;;;;1.40;1.10;;;8.90;99.90;;;;;;5037757;28;20056;-81
2022/01/23 14:35:31;;;;;;;1.17;1.10;;;8.80;99.90;;;;;;5037153;28;20109;-81
2022/01/23 14:38:15;;;;;;;1.67;1.27;;;8.80;99.90;;;;;;5071341;28;20560;-81
2022/01/23 14:41:01;;;;;;;1.83;1.10;;;8.80;99.90;;;;;;5039839;28;20516;-81
2022/01/23 14:43:38;;;;;;;1.13;1.00;;;8.80;99.90;;;;;;5035006;28;20076;-80
2022/01/23 14:46:06;;;;;;;2.80;1.27;;;8.70;99.90;;;;;;5037085;28;20045;-81
2022/01/23 14:48:37;;;;;;;1.40;0.75;;;8.70;99.90;;;;;;5036197;28;20049;-80
2022/01/23 14:51:05;;;;;;;2.88;1.40;;;8.80;99.90;;;;;;5032968;28;20056;-81
2022/01/23 14:53:37;;;;;;;1.40;1.30;;;8.70;99.90;;;;;;5037562;28;20052;-80
2022/01/23 14:56:06;;;;;;;1.45;1.33;;;8.70;99.90;;;;;;5036073;28;20639;-80
2022/01/23 14:58:33;;;;;;;1.35;1.25;;;8.80;99.90;;;;;;5034362;28;20044;-80
2022/01/23 15:01:01;;;;;;;1.92;1.10;;;8.80;99.90;;;;;;5069515;28;20069;-80
2022/01/23 15:03:29;;;;;;;1.20;1.08;;;8.80;99.90;;;;;;5033172;28;20045;-79
2022/01/23 15:05:55;;;;;;;1.25;1.13;;;8.70;99.90;;;;;;5037324;28;20045;-80
2022/01/23 15:08:24;;;;;;;1.88;1.10;;;8.70;99.90;;;;;;5036024;28;20049;-80
2022/01/23 15:10:55;;;;;;;0.98;0.70;;;8.80;99.90;;;;;;5035962;28;20056;-80
2022/01/23 15:13:22;;;;;;;1.85;0.93;;;8.70;99.90;;;;;;5070594;28;20460;-80
2022/01/23 15:15:49;;;;;;;2.67;1.15;;;8.70;99.90;;;;;;5038405;28;20053;-79
2022/01/23 15:18:15;;;;;;;2.17;1.08;;;8.70;99.90;;;;;;5071780;28;20052;-79
2022/01/23 15:20:41;;;;;;;2.65;1.10;;;8.80;99.90;;;;;;5037987;28;20644;-79
2022/01/23 15:23:07;;;;;;;4.70;3.00;;;8.70;99.90;;;;;;5039779;28;20049;-79
2022/01/23 15:25:34;;;;;;;5.65;3.97;;;8.70;99.90;;;;;;5039684;28;20051;-80
2022/01/23 15:28:00;;;;;;;3.85;2.30;;;8.70;99.90;;;;;;5039393;28;20049;-80
2022/01/23 15:30:26;;;;;;;1.92;1.60;;;8.70;99.90;;;;;;5038155;28;20148;-79
2022/01/23 15:32:54;;;;;;;2.03;1.42;;;8.70;99.90;;;;;;5037480;28;20052;-80
2022/01/23 15:35:21;;;;;;;1.30;1.10;;;8.60;99.90;;;;;;5037928;28;20053;-80
2022/01/23 15:37:47;;;;;;;3.08;2.15;;;8.50;99.90;;;;;;5037701;28;20048;-80
2022/01/23 15:40:15;;;;;;;1.52;1.40;;;8.50;99.90;;;;;;5036780;28;20527;-80
2022/01/23 15:42:42;;;;;;;1.45;1.35;;;8.50;99.90;;;;;;5037144;28;20064;-80
2022/01/23 15:45:10;;;;;;;3.80;3.30;;;8.50;99.90;;;;;;5036558;28;20099;-80
2022/01/23 15:47:36;;;;;;;2.80;1.98;;;8.50;99.90;;;;;;5033708;28;20131;-80
2022/01/23 15:50:04;;;;;;;2.15;1.50;;;8.40;99.90;;;;;;5038191;28;20049;-80
2022/01/23 15:52:29;;;;;;;1.40;1.30;;;8.40;99.90;;;;;;5037163;28;20056;-80
2022/01/23 15:54:55;;;;;;;1.50;1.40;;;8.40;99.90;;;;;;5037033;28;20053;-80
2022/01/23 15:57:21;;;;;;;3.53;1.42;;;8.40;99.90;;;;;;5036402;28;20723;-80
2022/01/23 15:59:46;;;;;;;2.38;2.17;;;8.50;99.90;;;;;;5035916;28;20056;-80
2022/01/23 16:02:13;;;;;;;3.83;1.30;;;8.50;99.90;;;;;;5034617;28;20072;-80
2022/01/23 16:04:39;;;;;;;2.15;1.35;;;8.50;99.90;;;;;;5069454;28;20052;-80
2022/01/23 16:07:07;;;;;;;2.70;1.50;;;8.50;99.90;;;;;;5037028;28;20056;-80
2022/01/23 16:09:34;;;;;;;3.83;1.30;;;8.50;99.90;;;;;;5036726;28;20049;-80
2022/01/23 16:12:00;;;;;;;1.05;0.98;;;8.60;99.90;;;;;;5036082;28;20049;-80
2022/01/23 16:14:25;;;;;;;3.17;1.08;;;8.60;99.90;;;;;;5036109;28;20118;-80
2022/01/23 16:16:51;;;;;;;1.23;1.13;;;8.60;99.90;;;;;;5035438;28;20049;-79
2022/01/23 16:19:17;;;;;;;2.20;1.17;;;8.60;99.90;;;;;;5038537;28;20080;-78
2022/01/23 16:21:44;;;;;;;1.35;0.93;;;8.60;99.90;;;;;;5033297;28;20155;-78
2022/01/23 16:24:10;;;;;;;1.77;1.40;;;8.60;99.90;;;;;;5033593;28;20140;-75
2022/01/23 16:26:36;;;;;;;1.40;1.30;;;8.60;99.90;;;;;;5036050;28;20041;-79
2022/01/23 16:29:02;;;;;;;1.95;1.40;;;8.60;99.90;;;;;;5035888;28;20055;-78
2022/01/23 16:31:27;;;;;;;1.35;1.10;;;8.60;99.90;;;;;;5035368;28;20396;-78
2022/01/23 16:33:53;;;;;;;1.00;0.85;;;8.50;99.90;;;;;;5034584;28;20044;-78